createdAt,value
2023-04-29T00:01:23.246Z,14.70
2023-04-29T00:06:31.174Z,13.60
2023-04-29T00:11:38.523Z,14.50
2023-04-29T00:16:45.959Z,15.20
2023-04-29T00:21:54.756Z,15.40
2023-04-29T00:27:02.579Z,15.70
2023-04-29T00:32:09.871Z,15.00
2023-04-29T00:37:17.122Z,17.80
2023-04-29T00:47:30.621Z,16.90
2023-04-29T00:52:39.455Z,16.00
2023-04-29T00:57:48.790Z,17.20
2023-04-29T01:02:57.225Z,17.00
2023-04-29T01:08:23.304Z,17.80
2023-04-29T01:13:36.929Z,16.50
2023-04-29T01:18:47.915Z,16.00
2023-04-29T01:23:56.580Z,15.80
2023-04-29T01:29:23.303Z,15.70
2023-04-29T01:34:38.714Z,18.30
2023-04-29T01:39:57.868Z,17.70
2023-04-29T01:45:09.999Z,16.00
2023-04-29T01:50:17.516Z,17.40
2023-04-29T01:55:25.919Z,18.50
2023-04-29T02:00:33.349Z,17.40
2023-04-29T02:05:40.363Z,16.30
2023-04-29T02:10:56.511Z,16.10
2023-04-29T02:16:11.914Z,15.70
2023-04-29T02:21:19.067Z,14.00
2023-04-29T02:31:32.877Z,15.80
2023-04-29T02:36:40.122Z,15.40
2023-04-29T02:41:47.428Z,13.50
2023-04-29T02:52:00.192Z,14.70
2023-04-29T03:06:16.300Z,15.40
2023-04-29T03:11:20.331Z,14.10
2023-04-29T03:16:24.982Z,15.50
2023-04-29T03:21:29.431Z,15.70
2023-04-29T03:26:33.522Z,15.10
2023-04-29T03:31:37.508Z,15.50
2023-04-29T03:36:41.515Z,15.10
2023-04-29T03:41:47.050Z,13.60
2023-04-29T03:46:50.744Z,13.80
2023-04-29T03:51:54.844Z,14.00
2023-04-29T03:56:58.641Z,14.60
2023-04-29T04:02:02.940Z,15.40
2023-04-29T04:07:07.075Z,15.20
2023-04-29T04:12:10.720Z,16.30
2023-04-29T04:17:14.664Z,16.40
2023-04-29T04:22:18.587Z,17.00
2023-04-29T04:27:22.593Z,16.50
2023-04-29T04:32:26.693Z,17.00
2023-04-29T04:37:30.636Z,15.90
2023-04-29T04:42:34.699Z,16.50
2023-04-29T04:47:40.422Z,16.50
2023-04-29T04:52:44.156Z,16.90
2023-04-29T04:57:48.310Z,16.40
2023-04-29T05:02:52.342Z,16.80
2023-04-29T05:07:56.790Z,17.70
2023-04-29T05:13:00.742Z,16.30
2023-04-29T05:18:04.855Z,17.10
2023-04-29T05:23:09.898Z,17.50
2023-04-29T05:28:13.730Z,17.40
2023-04-29T05:33:17.508Z,18.90
2023-04-29T05:38:22.488Z,15.60
2023-04-29T05:43:27.345Z,15.50
2023-04-29T05:48:31.366Z,16.70
2023-04-29T05:53:37.883Z,19.30
2023-04-29T05:58:41.754Z,19.80
2023-04-29T06:03:46.106Z,19.90
2023-04-29T06:08:50.762Z,19.00
2023-04-29T06:13:55.071Z,18.40
2023-04-29T06:18:59.092Z,17.60
2023-04-29T06:24:03.129Z,19.30
2023-04-29T06:29:06.742Z,17.60
2023-04-29T06:34:10.970Z,18.20
2023-04-29T06:39:15.304Z,17.80
2023-04-29T06:44:19.411Z,17.60
2023-04-29T06:49:23.158Z,18.90
2023-04-29T06:54:28.209Z,19.00
2023-04-29T06:59:32.886Z,17.00
2023-04-29T07:04:37.112Z,15.90
2023-04-29T07:09:40.901Z,14.90
2023-04-29T07:14:44.701Z,14.10
2023-04-29T07:19:48.348Z,11.60
2023-04-29T07:24:54.920Z,11.20
2023-04-29T07:30:01.241Z,10.80
2023-04-29T07:35:06.672Z,12.10
2023-04-29T07:40:11.762Z,9.80
2023-04-29T07:45:15.917Z,11.80
2023-04-29T07:50:19.892Z,11.20
2023-04-29T07:55:23.614Z,10.90
2023-04-29T08:00:28.046Z,10.70
2023-04-29T08:05:32.182Z,10.40
2023-04-29T08:10:40.520Z,11.60
2023-04-29T08:15:44.424Z,10.30
2023-04-29T08:20:49.372Z,10.50
2023-04-29T08:25:54.865Z,10.20
2023-04-29T08:30:59.076Z,7.60
2023-04-29T08:36:03.484Z,6.90
2023-04-29T08:41:09.400Z,6.80
2023-04-29T08:46:13.688Z,7.00
2023-04-29T08:51:17.557Z,7.40
2023-04-29T08:56:24.949Z,7.10
2023-04-29T09:01:31.373Z,8.00
2023-04-29T09:06:35.356Z,7.30
2023-04-29T09:11:39.593Z,7.50
2023-04-29T09:16:46.034Z,7.30
2023-04-29T09:21:56.113Z,7.60
2023-04-29T09:27:00.500Z,8.60
2023-04-29T09:32:20.584Z,7.40
2023-04-29T09:37:28.447Z,6.70
2023-04-29T09:42:43.396Z,8.10
2023-04-29T09:48:01.385Z,8.80
2023-04-29T09:53:08.496Z,8.70
2023-04-29T09:58:34.609Z,8.40
2023-04-29T10:03:39.634Z,8.20
2023-04-29T10:08:46.190Z,8.60
2023-04-29T10:13:51.784Z,8.90
2023-04-29T10:18:57.037Z,8.60
2023-04-29T10:24:03.652Z,8.50
2023-04-29T10:29:09.761Z,8.50
2023-04-29T10:34:13.833Z,8.80
2023-04-29T10:39:36.517Z,7.70
2023-04-29T10:45:23.119Z,8.00
2023-04-29T10:50:29.108Z,8.50
2023-04-29T10:55:35.844Z,8.90
2023-04-29T11:00:39.652Z,9.60
2023-04-29T11:05:45.910Z,8.80
2023-04-29T11:10:52.198Z,8.80
2023-04-29T11:21:13.986Z,8.80
2023-04-29T11:26:21.033Z,9.10
2023-04-29T11:31:30.324Z,9.80
2023-04-29T11:36:34.824Z,9.40
2023-04-29T11:41:39.221Z,9.70
2023-04-29T11:46:42.912Z,9.10
2023-04-29T11:51:50.988Z,9.70
2023-04-29T11:57:03.639Z,8.80
2023-04-29T12:02:11.628Z,9.20
2023-04-29T12:07:16.956Z,10.00
2023-04-29T12:12:20.870Z,9.50
2023-04-29T12:17:25.854Z,8.50
2023-04-29T12:22:33.272Z,8.90
2023-04-29T12:27:39.631Z,9.30
2023-04-29T12:32:43.461Z,9.30
2023-04-29T12:37:50.281Z,9.60
2023-04-29T12:47:59.357Z,8.90
2023-04-29T12:53:04.593Z,8.90
2023-04-29T12:58:09.221Z,9.40
2023-04-29T13:03:17.110Z,9.90
2023-04-29T13:08:22.410Z,10.10
2023-04-29T13:13:27.122Z,9.60
2023-04-29T13:18:31.574Z,9.30
2023-04-29T13:23:35.448Z,9.30
2023-04-29T13:28:39.469Z,10.20
2023-04-29T13:33:43.683Z,9.70
2023-04-29T13:38:50.827Z,9.50
2023-04-29T13:44:02.077Z,10.90
2023-04-29T13:49:31.275Z,11.20
2023-04-29T13:59:45.531Z,11.40
2023-04-29T14:04:55.353Z,10.60
2023-04-29T14:09:59.318Z,11.20
2023-04-29T14:15:03.380Z,11.50
2023-04-29T14:20:09.888Z,11.90
2023-04-29T14:25:13.724Z,12.30
2023-04-29T14:30:17.744Z,12.20
2023-04-29T14:35:21.579Z,11.20
2023-04-29T14:40:25.584Z,11.20
2023-04-29T14:45:30.116Z,11.90
2023-04-29T14:50:33.938Z,11.30
2023-04-29T14:55:37.666Z,14.50
2023-04-29T15:00:41.497Z,13.90
2023-04-29T15:05:45.522Z,12.50
2023-04-29T15:10:49.547Z,13.30
2023-04-29T15:15:53.595Z,13.40
2023-04-29T15:20:57.763Z,12.50
2023-04-29T15:26:01.629Z,13.90
2023-04-29T15:31:05.655Z,12.70
2023-04-29T15:36:09.478Z,13.00
2023-04-29T15:41:13.594Z,12.20
2023-04-29T15:46:17.549Z,12.80
2023-04-29T15:51:21.747Z,12.90
2023-04-29T15:56:26.008Z,13.10
2023-04-29T16:01:30.647Z,12.40
2023-04-29T16:06:34.485Z,12.30
2023-04-29T16:11:38.374Z,13.10
2023-04-29T16:16:42.401Z,13.70
2023-04-29T16:21:46.752Z,15.70
2023-04-29T16:26:51.177Z,17.10
2023-04-29T16:31:55.108Z,14.60
2023-04-29T16:36:58.909Z,14.50
2023-04-29T16:42:03.315Z,13.20
2023-04-29T16:47:07.076Z,13.00
2023-04-29T16:52:12.282Z,12.50
2023-04-29T16:57:16.920Z,12.70
2023-04-29T17:02:22.067Z,12.90
2023-04-29T17:07:26.148Z,14.70
2023-04-29T17:12:30.080Z,15.40
2023-04-29T17:17:34.492Z,14.10
2023-04-29T17:22:40.062Z,13.80
2023-04-29T17:27:45.874Z,14.30
2023-04-29T17:32:50.116Z,12.00
2023-04-29T17:37:53.934Z,15.20
2023-04-29T17:42:57.613Z,12.70
2023-04-29T17:48:01.569Z,23.30
2023-04-29T17:53:05.415Z,20.00
2023-04-29T17:58:09.162Z,23.60
2023-04-29T18:03:13.086Z,25.50
2023-04-29T18:08:17.029Z,24.20
2023-04-29T18:13:20.803Z,24.00
2023-04-29T18:18:25.661Z,26.10
2023-04-29T18:23:29.592Z,27.10
2023-04-29T18:28:33.594Z,26.70
2023-04-29T18:33:37.625Z,24.60
2023-04-29T18:38:41.818Z,24.20
2023-04-29T18:43:45.579Z,24.60
2023-04-29T18:48:49.634Z,27.00
2023-04-29T18:53:53.389Z,22.30
2023-04-29T18:58:57.356Z,24.70
2023-04-29T19:04:04.036Z,26.70
2023-04-29T19:09:07.993Z,26.10
2023-04-29T19:14:11.749Z,30.30
2023-04-29T19:19:15.705Z,28.30
2023-04-29T19:24:20.066Z,27.20
2023-04-29T19:29:24.198Z,67.20
2023-04-29T19:34:28.125Z,28.10
2023-04-29T19:39:32.063Z,30.50
2023-04-29T19:49:35.831Z,32.10
2023-04-29T19:54:40.442Z,30.90
2023-04-29T19:59:44.400Z,31.80
2023-04-29T20:04:48.825Z,29.10
2023-04-29T20:09:52.902Z,31.40
2023-04-29T20:14:57.383Z,36.60
2023-04-29T20:20:02.145Z,40.80
2023-04-29T20:25:07.776Z,62.30
2023-04-29T20:30:12.231Z,30.90
2023-04-29T20:35:16.274Z,31.00
2023-04-29T20:40:20.789Z,30.40
2023-04-29T20:45:25.401Z,29.50
2023-04-29T20:50:29.591Z,60.10
2023-04-29T20:55:33.401Z,27.40
2023-04-29T21:00:37.934Z,30.40
2023-04-29T21:05:42.091Z,28.20
2023-04-29T21:10:46.203Z,30.30
2023-04-29T21:15:50.466Z,72.70
2023-04-29T21:20:54.813Z,26.50
2023-04-29T21:25:59.725Z,29.30
2023-04-29T21:31:04.343Z,29.00
2023-04-29T21:36:08.724Z,29.20
2023-04-29T21:41:20.501Z,50.10
2023-04-29T21:46:24.653Z,28.50
2023-04-29T21:51:29.410Z,33.00
2023-04-29T21:56:33.422Z,32.40
2023-04-29T22:01:47.861Z,33.20
2023-04-29T22:06:52.259Z,33.00
2023-04-29T22:11:56.188Z,28.70
2023-04-29T22:17:00.707Z,31.40
2023-04-29T22:22:05.399Z,31.80
2023-04-29T22:27:09.573Z,33.80
2023-04-29T22:32:13.548Z,88.30
2023-04-29T22:37:17.942Z,28.90
2023-04-29T22:42:21.846Z,27.10
2023-04-29T22:47:26.398Z,29.70
2023-04-29T22:52:32.287Z,27.70
2023-04-29T22:57:36.409Z,26.70
2023-04-29T23:02:40.798Z,27.30
2023-04-29T23:07:47.377Z,26.20
2023-04-29T23:12:52.271Z,29.50
2023-04-29T23:17:56.628Z,35.40
2023-04-29T23:23:01.053Z,34.20
2023-04-29T23:28:05.738Z,30.70
2023-04-29T23:33:09.647Z,34.30
2023-04-29T23:38:13.544Z,31.90
2023-04-29T23:43:19.002Z,30.20
2023-04-29T23:48:23.014Z,30.50
2023-04-29T23:53:27.264Z,26.00
2023-04-29T23:58:33.455Z,29.70
